createdAt,value
2019-05-03T00:00:02.613Z,12.70
2019-05-03T00:02:50.067Z,12.70
2019-05-03T00:05:23.486Z,12.70
2019-05-03T00:07:54.034Z,12.70
2019-05-03T00:10:23.417Z,12.70
2019-05-03T00:12:52.850Z,12.70
2019-05-03T00:15:35.835Z,12.70
2019-05-03T00:18:05.080Z,12.60
2019-05-03T00:20:34.407Z,12.70
2019-05-03T00:23:03.619Z,12.60
2019-05-03T00:25:32.869Z,12.60
2019-05-03T00:28:02.058Z,12.60
2019-05-03T00:30:31.996Z,12.70
2019-05-03T00:33:02.891Z,12.70
2019-05-03T00:35:51.851Z,12.60
2019-05-03T00:38:21.848Z,12.60
2019-05-03T00:40:52.355Z,12.60
2019-05-03T00:43:22.231Z,12.60
2019-05-03T00:45:51.783Z,12.50
2019-05-03T00:48:21.949Z,12.60
2019-05-03T00:50:51.760Z,12.50
2019-05-03T00:53:22.363Z,12.50
2019-05-03T00:55:52.448Z,12.50
2019-05-03T00:58:22.397Z,12.50
2019-05-03T01:00:52.463Z,12.50
2019-05-03T01:03:21.997Z,12.50
2019-05-03T01:05:52.976Z,12.50
2019-05-03T01:08:22.355Z,12.50
2019-05-03T01:10:51.760Z,12.50
2019-05-03T01:13:21.812Z,12.40
2019-05-03T01:15:58.583Z,12.40
2019-05-03T01:18:27.835Z,12.40
2019-05-03T01:20:57.134Z,12.30
2019-05-03T01:23:26.463Z,12.40
2019-05-03T01:25:55.762Z,12.40
2019-05-03T01:28:25.018Z,12.40
2019-05-03T01:30:54.105Z,12.30
2019-05-03T01:33:23.398Z,12.30
2019-05-03T01:35:52.530Z,12.30
2019-05-03T01:38:22.702Z,12.40
2019-05-03T01:40:52.255Z,12.40
2019-05-03T01:43:22.220Z,12.40
2019-05-03T01:45:51.933Z,12.40
2019-05-03T01:48:25.905Z,12.40
2019-05-03T01:50:59.872Z,12.40
2019-05-03T01:53:32.238Z,12.40
2019-05-03T01:56:03.529Z,12.80
2019-05-03T01:58:32.459Z,12.40
2019-05-03T02:01:09.202Z,12.30
2019-05-03T02:03:48.671Z,12.30
2019-05-03T02:06:17.871Z,12.30
2019-05-03T02:08:47.116Z,12.20
2019-05-03T02:11:16.407Z,12.20
2019-05-03T02:13:45.603Z,12.10
2019-05-03T02:16:14.694Z,12.10
2019-05-03T02:18:43.991Z,12.10
2019-05-03T02:21:13.268Z,12.20
2019-05-03T02:23:42.685Z,12.20
2019-05-03T02:26:11.895Z,12.10
2019-05-03T02:28:42.137Z,12.10
2019-05-03T02:31:13.722Z,12.20
2019-05-03T02:33:43.513Z,12.10
2019-05-03T02:36:13.626Z,12.10
2019-05-03T02:38:43.262Z,12.10
2019-05-03T02:41:13.425Z,12.10
2019-05-03T02:43:47.515Z,12.10
2019-05-03T02:46:27.325Z,12.10
2019-05-03T02:49:10.426Z,12.10
2019-05-03T02:51:39.765Z,12.10
2019-05-03T02:54:08.993Z,12.00
2019-05-03T02:56:38.098Z,12.00
2019-05-03T02:59:07.300Z,12.00
2019-05-03T03:01:36.616Z,12.00
2019-05-03T03:04:05.891Z,12.00
2019-05-03T03:06:36.736Z,12.00
2019-05-03T03:09:06.752Z,12.00
2019-05-03T03:11:38.670Z,12.00
2019-05-03T03:14:08.863Z,12.00
2019-05-03T03:16:38.076Z,12.00
2019-05-03T03:19:07.216Z,12.00
2019-05-03T03:21:37.931Z,12.00
2019-05-03T03:24:16.793Z,12.00
2019-05-03T03:26:47.312Z,12.00
2019-05-03T03:29:18.172Z,12.00
2019-05-03T03:32:08.984Z,12.00
2019-05-03T03:34:54.773Z,12.00
2019-05-03T03:37:17.327Z,12.00
2019-05-03T03:39:46.605Z,12.00
2019-05-03T03:42:16.310Z,11.90
2019-05-03T03:44:45.557Z,11.90
2019-05-03T03:47:16.696Z,11.90
2019-05-03T03:49:46.459Z,11.80
2019-05-03T03:52:16.187Z,11.80
2019-05-03T03:54:45.740Z,11.70
2019-05-03T03:57:16.625Z,11.70
2019-05-03T03:59:45.839Z,11.70
2019-05-03T04:02:15.946Z,11.60
2019-05-03T04:04:45.463Z,11.60
2019-05-03T04:07:15.784Z,11.60
2019-05-03T04:09:45.849Z,11.60
2019-05-03T04:12:16.512Z,11.50
2019-05-03T04:14:47.404Z,11.50
2019-05-03T04:17:36.133Z,11.50
2019-05-03T04:20:07.478Z,11.50
2019-05-03T04:22:36.704Z,11.40
2019-05-03T04:25:06.448Z,11.40
2019-05-03T04:27:36.469Z,11.40
2019-05-03T04:30:07.137Z,11.30
2019-05-03T04:32:36.492Z,11.30
2019-05-03T04:35:05.607Z,11.20
2019-05-03T04:37:35.964Z,11.20
2019-05-03T04:40:06.782Z,11.30
2019-05-03T04:42:36.006Z,11.20
2019-05-03T04:45:06.261Z,11.20
2019-05-03T04:47:35.905Z,11.20
2019-05-03T04:50:06.329Z,11.10
2019-05-03T04:52:36.112Z,11.10
2019-05-03T04:55:10.128Z,11.10
2019-05-03T04:57:45.108Z,11.00
2019-05-03T05:00:11.780Z,11.00
2019-05-03T05:02:41.195Z,11.00
2019-05-03T05:05:10.327Z,11.00
2019-05-03T05:07:39.602Z,11.00
2019-05-03T05:10:08.780Z,11.00
2019-05-03T05:12:37.908Z,11.00
2019-05-03T05:15:07.628Z,11.00
2019-05-03T05:17:38.591Z,11.10
2019-05-03T05:20:21.304Z,11.10
2019-05-03T05:22:50.570Z,11.10
2019-05-03T05:25:21.243Z,11.20
2019-05-03T05:28:07.338Z,10.90
2019-05-03T05:30:36.720Z,11.10
2019-05-03T05:33:07.406Z,11.10
2019-05-03T05:35:36.726Z,11.10
2019-05-03T05:38:09.988Z,11.10
2019-05-03T05:40:41.240Z,11.20
2019-05-03T05:43:10.051Z,11.20
2019-05-03T05:45:39.181Z,11.20
2019-05-03T05:48:09.915Z,11.20
2019-05-03T05:50:44.906Z,11.20
2019-05-03T05:53:17.159Z,11.20
2019-05-03T05:55:50.872Z,11.20
2019-05-03T05:58:25.743Z,11.20
2019-05-03T06:01:15.197Z,11.20
2019-05-03T06:03:44.846Z,11.20
2019-05-03T06:06:15.683Z,11.20
2019-05-03T06:08:56.952Z,11.30
2019-05-03T06:11:34.737Z,11.20
2019-05-03T06:14:11.560Z,11.30
2019-05-03T06:16:45.142Z,11.40
2019-05-03T06:19:15.930Z,11.40
2019-05-03T06:22:01.548Z,11.40
2019-05-03T06:24:41.413Z,11.50
2019-05-03T06:27:15.268Z,11.50
2019-05-03T06:29:45.854Z,11.60
2019-05-03T06:32:19.213Z,11.60
2019-05-03T06:34:48.475Z,11.60
2019-05-03T06:37:19.237Z,11.70
2019-05-03T06:39:48.575Z,11.80
2019-05-03T06:42:19.370Z,11.90
2019-05-03T06:44:48.559Z,12.00
2019-05-03T06:47:17.835Z,12.00
2019-05-03T06:49:48.511Z,12.10
2019-05-03T06:52:19.777Z,12.00
2019-05-03T06:54:48.795Z,12.10
2019-05-03T06:57:20.446Z,12.10
2019-05-03T06:59:51.069Z,12.20
2019-05-03T07:02:28.661Z,12.30
2019-05-03T07:05:02.559Z,12.20
2019-05-03T07:07:39.071Z,12.30
2019-05-03T07:10:09.831Z,12.30
2019-05-03T07:12:56.667Z,12.30
2019-05-03T07:15:25.859Z,12.30
2019-05-03T07:17:55.772Z,12.40
2019-05-03T07:20:25.497Z,12.40
2019-05-03T07:22:56.031Z,12.50
2019-05-03T07:25:25.861Z,12.40
2019-05-03T07:27:55.736Z,12.50
2019-05-03T07:30:25.350Z,12.50
2019-05-03T07:32:56.018Z,12.60
2019-05-03T07:35:25.277Z,12.50
2019-05-03T07:37:55.343Z,12.60
2019-05-03T07:40:25.263Z,12.60
2019-05-03T07:42:55.425Z,12.70
2019-05-03T07:45:25.497Z,12.70
2019-05-03T07:47:55.857Z,12.80
2019-05-03T07:50:25.983Z,12.90
2019-05-03T07:52:55.809Z,13.00
2019-05-03T07:55:42.984Z,13.10
2019-05-03T07:58:15.069Z,13.30
2019-05-03T08:00:44.695Z,13.40
2019-05-03T08:03:15.453Z,13.40
2019-05-03T08:05:45.481Z,13.30
2019-05-03T08:08:15.061Z,13.40
2019-05-03T08:10:44.989Z,13.30
2019-05-03T08:13:15.101Z,13.30
2019-05-03T08:15:45.168Z,13.30
2019-05-03T08:18:15.298Z,13.20
2019-05-03T08:20:45.127Z,13.20
2019-05-03T08:23:26.339Z,13.00
2019-05-03T08:25:45.509Z,13.00
2019-05-03T08:28:14.828Z,12.90
2019-05-03T08:31:00.991Z,12.90
2019-05-03T08:33:41.346Z,12.90
2019-05-03T08:36:10.647Z,13.10
2019-05-03T08:38:39.806Z,13.20
2019-05-03T08:41:10.467Z,13.50
2019-05-03T08:43:39.799Z,13.90
2019-05-03T08:46:08.991Z,14.40
2019-05-03T08:48:38.228Z,14.60
2019-05-03T08:51:07.500Z,14.80
2019-05-03T08:53:36.632Z,14.90
2019-05-03T08:56:05.811Z,14.80
2019-05-03T08:58:35.091Z,14.80
2019-05-03T09:01:05.550Z,14.70
2019-05-03T09:03:37.926Z,14.60
2019-05-03T09:06:05.899Z,14.50
2019-05-03T09:08:35.482Z,14.40
2019-05-03T09:11:06.376Z,14.30
2019-05-03T09:13:55.515Z,14.30
2019-05-03T09:16:25.153Z,14.20
2019-05-03T09:18:54.926Z,14.10
2019-05-03T09:21:25.536Z,14.00
2019-05-03T09:23:55.357Z,14.00
2019-05-03T09:26:28.839Z,14.00
2019-05-03T09:28:55.790Z,14.00
2019-05-03T09:31:25.192Z,13.90
2019-05-03T09:33:54.965Z,14.00
2019-05-03T09:36:25.380Z,13.90
2019-05-03T09:38:55.208Z,14.10
2019-05-03T09:41:25.634Z,14.40
2019-05-03T09:43:55.510Z,14.70
2019-05-03T09:46:26.486Z,15.00
2019-05-03T09:49:03.329Z,15.20
2019-05-03T09:51:26.445Z,15.30
2019-05-03T09:53:57.193Z,15.50
2019-05-03T09:56:53.658Z,15.40
2019-05-03T09:59:10.190Z,15.30
2019-05-03T10:01:39.324Z,15.20
2019-05-03T10:04:08.641Z,15.00
2019-05-03T10:06:37.896Z,15.00
2019-05-03T10:09:07.099Z,15.10
2019-05-03T10:11:38.996Z,15.20
2019-05-03T10:14:08.131Z,15.70
2019-05-03T10:16:38.983Z,16.20
2019-05-03T10:19:08.154Z,16.70
2019-05-03T10:21:38.971Z,17.10
2019-05-03T10:24:08.452Z,17.30
2019-05-03T10:26:37.825Z,17.40
2019-05-03T10:29:07.087Z,17.30
2019-05-03T10:31:37.819Z,17.20
2019-05-03T10:34:07.190Z,17.00
2019-05-03T10:36:36.449Z,16.80
2019-05-03T10:39:06.624Z,16.50
2019-05-03T10:41:35.815Z,16.10
2019-05-03T10:44:06.007Z,16.00
2019-05-03T10:46:35.888Z,15.90
2019-05-03T10:49:05.803Z,15.90
2019-05-03T10:51:36.772Z,16.00
2019-05-03T10:54:05.897Z,16.20
2019-05-03T10:56:37.347Z,16.50
2019-05-03T10:59:08.332Z,16.80
2019-05-03T11:01:39.015Z,16.90
2019-05-03T11:04:11.211Z,17.10
2019-05-03T11:06:40.608Z,17.30
2019-05-03T11:09:09.842Z,17.40
2019-05-03T11:11:39.173Z,17.40
2019-05-03T11:14:08.664Z,17.20
2019-05-03T11:16:37.762Z,17.00
2019-05-03T11:19:07.137Z,16.70
2019-05-03T11:21:36.435Z,16.40
2019-05-03T11:24:05.581Z,16.20
2019-05-03T11:26:35.188Z,16.10
2019-05-03T11:29:05.153Z,16.30
2019-05-03T11:31:52.584Z,16.30
2019-05-03T11:34:38.324Z,16.20
2019-05-03T11:37:21.421Z,16.10
2019-05-03T11:39:51.771Z,16.00
2019-05-03T11:42:21.035Z,16.00
2019-05-03T11:44:50.220Z,15.80
2019-05-03T11:47:21.273Z,15.70
2019-05-03T11:49:50.566Z,15.60
2019-05-03T11:52:19.871Z,15.40
2019-05-03T11:54:49.096Z,15.40
2019-05-03T11:57:26.419Z,15.20
2019-05-03T11:59:55.841Z,15.30
2019-05-03T12:02:29.288Z,15.40
2019-05-03T12:05:00.076Z,15.40
2019-05-03T12:07:38.874Z,15.50
2019-05-03T12:10:13.650Z,15.70
2019-05-03T12:12:44.784Z,16.00
2019-05-03T12:15:15.112Z,16.30
2019-05-03T12:17:54.238Z,16.60
2019-05-03T12:20:18.460Z,16.90
2019-05-03T12:22:47.926Z,17.00
2019-05-03T12:25:17.728Z,17.10
2019-05-03T12:27:47.489Z,17.20
2019-05-03T12:30:16.900Z,17.50
2019-05-03T12:32:46.217Z,17.90
2019-05-03T12:35:15.552Z,18.10
2019-05-03T12:37:44.654Z,18.40
2019-05-03T12:40:14.913Z,18.80
2019-05-03T12:42:45.511Z,18.90
2019-05-03T12:45:15.349Z,19.10
2019-05-03T12:47:45.363Z,19.10
2019-05-03T12:50:15.655Z,19.00
2019-05-03T12:52:50.272Z,18.80
2019-05-03T12:55:15.968Z,18.80
2019-05-03T12:57:45.738Z,18.70
2019-05-03T13:00:22.586Z,18.50
2019-05-03T13:02:55.022Z,18.40
2019-05-03T13:05:24.877Z,18.20
2019-05-03T13:08:01.763Z,17.90
2019-05-03T13:10:30.989Z,17.90
2019-05-03T13:13:00.415Z,17.80
2019-05-03T13:15:29.694Z,17.90
2019-05-03T13:17:58.981Z,17.90
2019-05-03T13:20:28.249Z,17.90
2019-05-03T13:22:57.553Z,17.90
2019-05-03T13:25:26.902Z,17.90
2019-05-03T13:27:56.117Z,17.80
2019-05-03T13:30:25.440Z,17.70
2019-05-03T13:32:54.996Z,17.60
2019-05-03T13:35:25.642Z,17.50
2019-05-03T13:37:55.639Z,17.30
2019-05-03T13:40:25.071Z,17.10
2019-05-03T13:43:03.044Z,17.00
2019-05-03T13:45:25.141Z,16.70
2019-05-03T13:47:55.275Z,16.60
2019-05-03T13:50:24.727Z,16.50
2019-05-03T13:52:55.792Z,16.40
2019-05-03T13:55:24.825Z,16.20
2019-05-03T13:57:54.881Z,16.10
2019-05-03T14:00:24.757Z,16.00
2019-05-03T14:02:56.213Z,15.90
2019-05-03T14:05:24.728Z,15.90
2019-05-03T14:07:56.179Z,15.90
2019-05-03T14:10:25.130Z,15.80
2019-05-03T14:12:56.057Z,15.70
2019-05-03T14:15:27.644Z,15.70
2019-05-03T14:17:56.893Z,15.70
2019-05-03T14:20:45.635Z,15.60
2019-05-03T14:23:15.395Z,15.60
2019-05-03T14:25:44.812Z,15.50
2019-05-03T14:28:14.592Z,15.50
2019-05-03T14:30:45.353Z,15.50
2019-05-03T14:33:14.793Z,15.50
2019-05-03T14:35:45.212Z,15.50
2019-05-03T14:38:15.100Z,15.50
2019-05-03T14:40:44.970Z,15.50
2019-05-03T14:43:15.458Z,15.50
2019-05-03T14:45:44.777Z,15.40
2019-05-03T14:48:15.243Z,15.40
2019-05-03T14:50:45.586Z,15.30
2019-05-03T14:53:14.920Z,15.20
2019-05-03T14:55:48.441Z,15.20
2019-05-03T14:58:31.480Z,15.10
2019-05-03T15:01:02.171Z,15.10
2019-05-03T15:03:31.584Z,15.00
2019-05-03T15:06:01.117Z,15.00
2019-05-03T15:08:30.470Z,14.90
2019-05-03T15:10:59.675Z,14.90
2019-05-03T15:13:28.815Z,14.90
2019-05-03T15:15:58.201Z,14.90
2019-05-03T15:18:27.509Z,14.80
2019-05-03T15:20:56.856Z,14.80
2019-05-03T15:23:26.034Z,14.70
2019-05-03T15:25:55.462Z,14.70
2019-05-03T15:28:26.316Z,14.70
2019-05-03T15:30:55.598Z,14.70
2019-05-03T15:33:24.868Z,14.60
2019-05-03T15:35:55.240Z,14.60
2019-05-03T15:38:24.668Z,14.60
2019-05-03T15:40:54.766Z,14.60
2019-05-03T15:43:28.979Z,14.60
2019-05-03T15:46:02.691Z,14.60
2019-05-03T15:48:47.930Z,14.50
2019-05-03T15:51:17.221Z,14.40
2019-05-03T15:53:46.525Z,14.50
2019-05-03T15:56:15.864Z,14.40
2019-05-03T15:58:46.925Z,14.30
2019-05-03T16:01:16.056Z,14.30
2019-05-03T16:03:45.450Z,14.20
2019-05-03T16:06:15.520Z,14.20
2019-05-03T16:08:44.945Z,14.30
2019-05-03T16:11:14.837Z,14.30
2019-05-03T16:13:44.859Z,14.20
2019-05-03T16:16:15.174Z,14.20
2019-05-03T16:18:44.847Z,14.20
2019-05-03T16:21:14.685Z,14.10
2019-05-03T16:23:46.314Z,14.20
2019-05-03T16:26:14.748Z,14.20
2019-05-03T16:28:46.440Z,14.20
2019-05-03T16:31:17.240Z,14.20
2019-05-03T16:33:46.532Z,14.20
2019-05-03T16:36:15.946Z,14.10
2019-05-03T16:38:45.137Z,14.10
2019-05-03T16:41:17.553Z,14.00
2019-05-03T16:43:45.654Z,14.00
2019-05-03T16:46:14.918Z,14.00
2019-05-03T16:48:44.777Z,14.00
2019-05-03T16:51:15.221Z,14.00
2019-05-03T16:53:45.375Z,13.90
2019-05-03T16:56:16.553Z,13.90
2019-05-03T16:58:45.330Z,13.90
2019-05-03T17:01:17.885Z,13.80
2019-05-03T17:03:47.069Z,13.90
2019-05-03T17:06:23.788Z,13.70
2019-05-03T17:08:56.792Z,13.70
2019-05-03T17:11:26.151Z,13.70
2019-05-03T17:13:57.616Z,13.60
2019-05-03T17:16:26.251Z,13.60
2019-05-03T17:18:55.542Z,13.70
2019-05-03T17:21:25.453Z,13.60
2019-05-03T17:23:54.699Z,13.60
2019-05-03T17:26:24.924Z,13.60
2019-05-03T17:28:55.359Z,13.50
2019-05-03T17:31:24.779Z,13.60
2019-05-03T17:33:56.677Z,13.50
2019-05-03T17:36:25.055Z,13.40
2019-05-03T17:38:56.017Z,13.40
2019-05-03T17:41:45.188Z,13.40
2019-05-03T17:44:15.667Z,13.30
2019-05-03T17:46:45.410Z,13.30
2019-05-03T17:49:14.807Z,13.20
2019-05-03T17:51:45.703Z,13.20
2019-05-03T17:54:33.388Z,13.20
2019-05-03T17:57:04.636Z,13.20
2019-05-03T17:59:35.753Z,13.10
2019-05-03T18:02:24.669Z,13.10
2019-05-03T18:05:12.167Z,13.10
2019-05-03T18:07:59.669Z,13.30
2019-05-03T18:10:32.115Z,13.00
2019-05-03T18:13:02.228Z,13.20
2019-05-03T18:15:34.410Z,13.10
2019-05-03T18:18:05.284Z,13.10
2019-05-03T18:20:39.877Z,13.10
2019-05-03T18:23:15.235Z,13.10
2019-05-03T18:25:45.235Z,13.10
2019-05-03T18:28:19.129Z,13.10
2019-05-03T18:30:50.182Z,13.10
2019-05-03T18:33:20.726Z,13.10
2019-05-03T18:35:51.708Z,13.10
2019-05-03T18:38:25.227Z,13.40
2019-05-03T18:40:56.373Z,13.20
2019-05-03T18:43:36.611Z,13.20
2019-05-03T18:46:14.206Z,13.20
2019-05-03T18:48:44.581Z,14.30
2019-05-03T18:51:15.890Z,13.00
2019-05-03T18:53:48.853Z,13.00
2019-05-03T18:56:22.851Z,13.10
2019-05-03T18:58:54.384Z,13.00
2019-05-03T19:01:25.346Z,13.00
2019-05-03T19:03:58.469Z,12.90
2019-05-03T19:06:30.470Z,13.00
2019-05-03T19:09:19.609Z,13.00
2019-05-03T19:11:54.780Z,13.00
2019-05-03T19:14:28.119Z,12.90
2019-05-03T19:17:05.087Z,12.80
2019-05-03T19:19:44.692Z,12.80
2019-05-03T19:22:18.636Z,12.90
2019-05-03T19:24:52.890Z,12.80
2019-05-03T19:27:25.578Z,12.90
2019-05-03T19:29:58.991Z,12.80
2019-05-03T19:32:31.212Z,12.80
2019-05-03T19:35:05.052Z,12.70
2019-05-03T19:37:38.500Z,12.70
2019-05-03T19:40:13.553Z,12.70
2019-05-03T19:42:46.599Z,12.70
2019-05-03T19:45:19.691Z,12.60
2019-05-03T19:47:52.670Z,12.60
2019-05-03T19:50:27.270Z,12.10
2019-05-03T19:53:19.824Z,12.60
2019-05-03T19:55:51.899Z,12.60
2019-05-03T19:58:26.708Z,12.60
2019-05-03T20:01:17.044Z,12.70
2019-05-03T20:04:09.580Z,12.60
2019-05-03T20:06:45.103Z,12.60
2019-05-03T20:09:24.496Z,12.50
2019-05-03T20:12:00.060Z,12.50
2019-05-03T20:14:32.908Z,12.50
2019-05-03T20:17:06.759Z,12.50
2019-05-03T20:19:40.583Z,12.50
2019-05-03T20:22:16.725Z,12.50
2019-05-03T20:24:50.522Z,12.50
2019-05-03T20:27:25.195Z,12.50
2019-05-03T20:30:00.347Z,12.50
2019-05-03T20:32:37.663Z,12.40
2019-05-03T20:35:18.738Z,12.30
2019-05-03T20:37:48.828Z,12.20
2019-05-03T20:40:22.577Z,12.20
2019-05-03T20:43:01.051Z,12.20
2019-05-03T20:45:36.953Z,12.20
2019-05-03T20:48:14.437Z,12.20
2019-05-03T20:50:46.045Z,12.20
2019-05-03T20:53:18.143Z,12.00
2019-05-03T20:55:50.206Z,12.10
2019-05-03T20:58:25.170Z,12.10
2019-05-03T21:00:58.772Z,12.80
2019-05-03T21:03:33.279Z,11.90
2019-05-03T21:06:07.083Z,12.00
2019-05-03T21:08:49.625Z,11.90
2019-05-03T21:11:15.191Z,11.90
2019-05-03T21:13:48.515Z,11.90
2019-05-03T21:16:35.568Z,11.90
2019-05-03T21:19:13.458Z,11.80
2019-05-03T21:21:47.635Z,11.80
2019-05-03T21:24:24.131Z,11.70
2019-05-03T21:26:56.595Z,13.40
2019-05-03T21:29:28.367Z,11.90
2019-05-03T21:32:00.617Z,11.70
2019-05-03T21:34:32.220Z,11.60
2019-05-03T21:37:03.476Z,11.50
2019-05-03T21:39:34.835Z,11.50
2019-05-03T21:42:04.744Z,11.50
2019-05-03T21:44:35.619Z,11.50
2019-05-03T21:47:06.833Z,11.40
2019-05-03T21:49:37.822Z,11.50
2019-05-03T21:52:07.979Z,11.40
2019-05-03T21:54:37.400Z,11.30
2019-05-03T21:57:06.861Z,11.30
2019-05-03T21:59:36.383Z,11.30
2019-05-03T22:02:05.608Z,11.30
2019-05-03T22:04:35.210Z,11.30
2019-05-03T22:07:05.311Z,11.20
2019-05-03T22:09:34.859Z,11.20
2019-05-03T22:12:05.629Z,11.10
2019-05-03T22:14:39.546Z,11.10
2019-05-03T22:17:10.169Z,11.10
2019-05-03T22:19:39.419Z,11.10
2019-05-03T22:22:25.561Z,11.00
2019-05-03T22:24:57.399Z,11.00
2019-05-03T22:27:28.168Z,10.90
2019-05-03T22:29:57.509Z,10.90
2019-05-03T22:32:27.150Z,10.80
2019-05-03T22:34:56.556Z,10.90
2019-05-03T22:37:25.873Z,10.90
2019-05-03T22:39:55.159Z,10.80
2019-05-03T22:42:25.313Z,10.70
2019-05-03T22:44:55.340Z,10.70
2019-05-03T22:47:25.336Z,10.80
2019-05-03T22:49:54.820Z,10.70
2019-05-03T22:52:25.727Z,10.80
2019-05-03T22:54:55.513Z,10.70
2019-05-03T22:57:24.891Z,10.80
2019-05-03T22:59:54.089Z,10.80
2019-05-03T23:02:24.884Z,10.70
2019-05-03T23:04:55.414Z,10.80
2019-05-03T23:07:25.065Z,10.70
2019-05-03T23:09:54.319Z,10.70
2019-05-03T23:12:23.563Z,10.70
2019-05-03T23:14:52.762Z,10.60
2019-05-03T23:17:21.983Z,10.70
2019-05-03T23:19:52.676Z,10.60
2019-05-03T23:22:26.083Z,10.60
2019-05-03T23:24:55.278Z,10.60
2019-05-03T23:27:25.073Z,10.50
2019-05-03T23:29:54.605Z,10.50
2019-05-03T23:32:24.482Z,10.50
2019-05-03T23:34:54.417Z,10.50
2019-05-03T23:37:23.640Z,10.60
2019-05-03T23:39:52.744Z,10.50
2019-05-03T23:42:22.039Z,10.50
2019-05-03T23:44:51.393Z,10.40
2019-05-03T23:47:28.142Z,10.40
2019-05-03T23:49:57.491Z,10.40
2019-05-03T23:52:28.230Z,10.40
2019-05-03T23:54:59.019Z,10.30
2019-05-03T23:57:28.207Z,10.30
2019-05-03T23:59:57.383Z,10.20
